createdAt,value
2022-12-15T00:00:51.164Z,-3.33
2022-12-15T00:03:47.300Z,-3.41
2022-12-15T00:06:34.616Z,-3.47
2022-12-15T00:09:27.715Z,-3.54
2022-12-15T00:12:18.683Z,-3.60
2022-12-15T00:15:05.991Z,-3.67
2022-12-15T00:17:53.070Z,-3.77
2022-12-15T00:20:40.180Z,-3.85
2022-12-15T00:23:32.077Z,-3.95
2022-12-15T00:26:19.719Z,-4.04
2022-12-15T00:29:06.829Z,-4.11
2022-12-15T00:31:54.259Z,-4.18
2022-12-15T00:34:41.557Z,-4.25
2022-12-15T00:37:28.820Z,-4.32
2022-12-15T00:40:00.223Z,-4.39
2022-12-15T00:42:28.887Z,-4.44
2022-12-15T00:44:57.909Z,-4.47
2022-12-15T00:47:26.487Z,-4.49
2022-12-15T00:50:24.236Z,-4.49
2022-12-15T00:53:11.220Z,-4.49
2022-12-15T00:55:58.636Z,-4.51
2022-12-15T00:58:46.126Z,-4.50
2022-12-15T01:01:33.189Z,-4.50
2022-12-15T01:04:20.373Z,-4.48
2022-12-15T01:07:07.842Z,-4.47
2022-12-15T01:09:55.193Z,-4.45
2022-12-15T01:12:42.015Z,-4.42
2022-12-15T01:15:29.346Z,-4.40
2022-12-15T01:18:16.899Z,-4.38
2022-12-15T01:20:45.652Z,-4.35
2022-12-15T01:23:14.202Z,-4.31
2022-12-15T01:25:42.758Z,-4.28
2022-12-15T01:28:11.272Z,-4.26
2022-12-15T01:30:39.884Z,-4.24
2022-12-15T01:33:08.553Z,-4.21
2022-12-15T01:35:37.040Z,-4.19
2022-12-15T01:38:05.719Z,-4.16
2022-12-15T01:40:47.328Z,-4.13
2022-12-15T01:43:29.702Z,-4.09
2022-12-15T01:46:10.325Z,-4.06
2022-12-15T01:48:54.518Z,-4.01
2022-12-15T01:51:35.478Z,-3.96
2022-12-15T01:54:14.276Z,-3.92
2022-12-15T01:56:52.796Z,-3.88
2022-12-15T01:59:28.923Z,-3.85
2022-12-15T02:01:57.553Z,-3.81
2022-12-15T02:04:26.450Z,-3.79
2022-12-15T02:06:54.966Z,-3.77
2022-12-15T02:09:26.190Z,-3.76
2022-12-15T02:12:33.293Z,-3.76
2022-12-15T02:15:18.142Z,-3.74
2022-12-15T02:18:20.699Z,-3.73
2022-12-15T02:21:01.052Z,-3.73
2022-12-15T02:24:19.696Z,-3.72
2022-12-15T02:27:01.324Z,-3.70
2022-12-15T02:30:03.679Z,-3.69
2022-12-15T02:32:43.781Z,-3.67
2022-12-15T02:35:48.307Z,-3.64
2022-12-15T02:38:38.184Z,-3.60
2022-12-15T02:41:32.925Z,-3.57
2022-12-15T02:44:09.971Z,-3.55
2022-12-15T02:46:55.064Z,-3.53
2022-12-15T02:49:44.877Z,-3.49
2022-12-15T02:52:36.497Z,-3.47
2022-12-15T02:56:08.460Z,-3.44
2022-12-15T02:58:43.639Z,-3.41
2022-12-15T03:01:43.599Z,-3.38
2022-12-15T03:04:13.263Z,-3.34
2022-12-15T03:06:42.288Z,-3.31
2022-12-15T03:09:10.995Z,-3.29
2022-12-15T03:11:39.614Z,-3.25
2022-12-15T03:14:08.175Z,-3.22
2022-12-15T03:16:36.795Z,-3.17
2022-12-15T03:19:05.401Z,-3.14
2022-12-15T03:21:33.979Z,-3.10
2022-12-15T03:24:02.542Z,-3.08
2022-12-15T03:26:31.097Z,-3.05
2022-12-15T03:28:59.672Z,-3.04
2022-12-15T03:31:28.475Z,-3.01
2022-12-15T03:33:57.474Z,-2.98
2022-12-15T03:36:26.298Z,-2.97
2022-12-15T03:38:54.781Z,-2.95
2022-12-15T03:41:23.286Z,-2.91
2022-12-15T03:43:51.858Z,-2.90
2022-12-15T03:46:20.434Z,-2.90
2022-12-15T03:48:49.026Z,-2.91
2022-12-15T03:51:17.570Z,-2.92
2022-12-15T03:53:48.546Z,-2.93
2022-12-15T03:56:18.013Z,-2.94
2022-12-15T03:58:47.080Z,-2.91
2022-12-15T04:01:36.624Z,-2.90
2022-12-15T04:04:05.725Z,-2.88
2022-12-15T04:06:34.305Z,-2.86
2022-12-15T04:09:02.913Z,-2.85
2022-12-15T04:11:31.447Z,-2.83
2022-12-15T04:13:59.986Z,-2.83
2022-12-15T04:16:28.607Z,-2.81
2022-12-15T04:19:15.788Z,-2.79
2022-12-15T04:21:44.410Z,-2.79
2022-12-15T04:24:31.616Z,-2.78
2022-12-15T04:27:19.029Z,-2.77
2022-12-15T04:30:05.975Z,-2.77
2022-12-15T04:32:53.269Z,-2.76
2022-12-15T04:35:40.385Z,-2.75
2022-12-15T04:38:27.662Z,-2.73
2022-12-15T04:41:14.854Z,-2.71
2022-12-15T04:44:02.250Z,-2.70
2022-12-15T04:46:49.602Z,-2.67
2022-12-15T04:49:36.536Z,-2.63
2022-12-15T04:52:23.875Z,-2.61
2022-12-15T04:55:11.010Z,-2.58
2022-12-15T04:57:58.402Z,-2.54
2022-12-15T05:00:45.347Z,-2.51
2022-12-15T05:03:33.139Z,-2.46
2022-12-15T05:06:21.019Z,-2.43
2022-12-15T05:09:08.292Z,-2.41
2022-12-15T05:11:56.327Z,-2.37
2022-12-15T05:14:43.540Z,-2.34
2022-12-15T05:17:30.548Z,-2.31
2022-12-15T05:20:17.598Z,-2.29
2022-12-15T05:23:04.879Z,-2.26
2022-12-15T05:25:52.241Z,-2.22
2022-12-15T05:28:39.582Z,-2.18
2022-12-15T05:31:27.620Z,-2.14
2022-12-15T05:34:04.495Z,-2.10
2022-12-15T05:36:34.044Z,-2.08
2022-12-15T05:39:02.767Z,-2.06
2022-12-15T05:41:31.292Z,-2.03
2022-12-15T05:43:59.986Z,-2.02
2022-12-15T05:46:28.568Z,-1.98
2022-12-15T05:48:57.280Z,-1.95
2022-12-15T05:51:25.805Z,-1.92
2022-12-15T05:53:54.434Z,-1.89
2022-12-15T05:56:23.057Z,-1.87
2022-12-15T05:58:51.640Z,-1.84
2022-12-15T06:01:20.391Z,-1.80
2022-12-15T06:03:49.002Z,-1.77
2022-12-15T06:06:18.674Z,-1.75
2022-12-15T06:08:49.994Z,-1.72
2022-12-15T06:11:20.506Z,-1.70
2022-12-15T06:13:49.532Z,-1.68
2022-12-15T06:16:23.488Z,-1.65
2022-12-15T06:19:02.114Z,-1.63
2022-12-15T06:21:36.524Z,-1.62
2022-12-15T06:24:06.435Z,-1.63
2022-12-15T06:26:40.092Z,-1.62
2022-12-15T06:29:11.815Z,-1.61
2022-12-15T06:31:41.377Z,-1.59
2022-12-15T06:34:15.234Z,-1.58
2022-12-15T06:36:44.325Z,-1.57
2022-12-15T06:39:15.330Z,-1.55
2022-12-15T06:41:44.339Z,-1.53
2022-12-15T06:44:16.578Z,-1.51
2022-12-15T06:46:46.582Z,-1.48
2022-12-15T06:49:15.224Z,-1.44
2022-12-15T06:51:45.073Z,-1.40
2022-12-15T06:54:20.742Z,-1.35
2022-12-15T06:56:51.568Z,-1.30
2022-12-15T06:59:20.437Z,-1.27
2022-12-15T07:01:49.448Z,-1.27
2022-12-15T07:04:18.338Z,-1.27
2022-12-15T07:06:46.979Z,-1.27
2022-12-15T07:09:17.244Z,-1.29
2022-12-15T07:11:46.545Z,-1.30
2022-12-15T07:14:15.889Z,-1.31
2022-12-15T07:16:45.658Z,-1.32
2022-12-15T07:19:14.428Z,-1.33
2022-12-15T07:21:43.427Z,-1.32
2022-12-15T07:24:13.091Z,-1.32
2022-12-15T07:26:42.060Z,-1.30
2022-12-15T07:29:11.959Z,-1.30
2022-12-15T07:31:40.717Z,-1.28
2022-12-15T07:34:09.309Z,-1.25
2022-12-15T07:36:38.607Z,-1.21
2022-12-15T07:39:10.688Z,-1.16
2022-12-15T07:41:40.521Z,-1.11
2022-12-15T07:44:10.271Z,-1.08
2022-12-15T07:46:38.855Z,-1.05
2022-12-15T07:49:08.858Z,-1.02
2022-12-15T07:51:37.429Z,-0.97
2022-12-15T07:54:06.067Z,-0.92
2022-12-15T07:56:39.167Z,-0.88
2022-12-15T07:59:08.292Z,-0.83
2022-12-15T08:01:37.063Z,-0.78
2022-12-15T08:04:06.403Z,-0.74
2022-12-15T08:06:35.032Z,-0.68
2022-12-15T08:09:03.708Z,-0.61
2022-12-15T08:11:35.232Z,-0.54
2022-12-15T08:14:05.722Z,-0.48
2022-12-15T08:16:36.965Z,-0.38
2022-12-15T08:19:07.145Z,-0.30
2022-12-15T08:21:35.827Z,-0.16
2022-12-15T08:24:04.987Z,-0.01
2022-12-15T08:26:33.634Z,0.12
2022-12-15T08:31:54.604Z,0.31
2022-12-15T08:34:23.299Z,0.37
2022-12-15T08:36:52.202Z,0.38
2022-12-15T08:39:20.938Z,0.43
2022-12-15T08:41:49.645Z,0.50
2022-12-15T08:44:18.269Z,0.56
2022-12-15T08:46:46.786Z,0.60
2022-12-15T08:49:21.217Z,0.65
2022-12-15T08:51:51.430Z,0.66
2022-12-15T08:54:21.392Z,0.67
2022-12-15T08:56:50.236Z,0.70
2022-12-15T08:59:19.491Z,0.75
2022-12-15T09:01:48.569Z,0.83
2022-12-15T09:04:17.905Z,0.92
2022-12-15T09:06:48.503Z,1.03
2022-12-15T09:09:20.288Z,1.15
2022-12-15T09:11:49.782Z,1.24
2022-12-15T09:14:22.755Z,1.37
2022-12-15T09:16:55.807Z,1.47
2022-12-15T09:19:25.353Z,1.60
2022-12-15T09:21:53.910Z,1.70
2022-12-15T09:24:34.044Z,1.77
2022-12-15T09:27:03.612Z,2.05
2022-12-15T09:29:32.872Z,2.32
2022-12-15T09:32:02.162Z,2.52
2022-12-15T09:34:30.815Z,2.67
2022-12-15T09:36:59.508Z,2.53
2022-12-15T09:39:28.199Z,2.42
2022-12-15T09:42:00.741Z,2.45
2022-12-15T09:44:32.790Z,2.47
2022-12-15T09:47:22.599Z,2.42
2022-12-15T09:50:01.194Z,2.26
2022-12-15T09:52:49.265Z,2.11
2022-12-15T09:55:27.499Z,2.09
2022-12-15T09:58:10.954Z,2.10
2022-12-15T10:00:58.255Z,1.98
2022-12-15T10:03:53.177Z,1.92
2022-12-15T10:06:33.512Z,2.14
2022-12-15T10:09:29.708Z,2.32
2022-12-15T10:12:22.197Z,2.51
2022-12-15T10:14:57.333Z,2.69
2022-12-15T10:17:50.283Z,2.80
2022-12-15T10:20:26.356Z,2.90
2022-12-15T10:23:01.455Z,3.05
2022-12-15T10:25:31.911Z,3.23
2022-12-15T10:29:07.554Z,3.43
2022-12-15T10:32:00.590Z,3.68
2022-12-15T10:34:33.575Z,3.87
2022-12-15T10:37:03.307Z,4.04
2022-12-15T10:39:44.433Z,4.20
2022-12-15T10:42:27.209Z,4.40
2022-12-15T10:44:59.219Z,4.63
2022-12-15T10:47:34.016Z,4.88
2022-12-15T10:50:25.031Z,5.09
2022-12-15T10:52:54.109Z,5.16
2022-12-15T10:55:43.815Z,5.34
2022-12-15T10:58:23.422Z,5.47
2022-12-15T11:01:21.836Z,5.29
2022-12-15T11:03:54.503Z,5.07
2022-12-15T11:06:27.343Z,4.94
2022-12-15T11:09:29.842Z,4.88
2022-12-15T11:12:17.320Z,4.88
2022-12-15T11:14:51.496Z,4.98
2022-12-15T11:17:24.093Z,5.03
2022-12-15T11:20:13.078Z,5.04
2022-12-15T11:22:57.371Z,5.06
2022-12-15T11:25:38.694Z,5.04
2022-12-15T11:28:16.613Z,4.98
2022-12-15T11:31:00.499Z,4.89
2022-12-15T11:33:29.390Z,4.76
2022-12-15T11:36:19.268Z,4.66
2022-12-15T11:39:04.928Z,4.55
2022-12-15T11:41:50.535Z,4.46
2022-12-15T11:44:33.762Z,4.40
2022-12-15T11:47:46.957Z,4.32
2022-12-15T11:50:31.405Z,4.14
2022-12-15T11:53:47.470Z,3.95
2022-12-15T11:56:56.044Z,3.73
2022-12-15T11:59:38.731Z,3.56
2022-12-15T12:02:31.896Z,3.43
2022-12-15T12:05:42.195Z,3.26
2022-12-15T12:08:22.454Z,3.10
2022-12-15T12:11:18.585Z,2.97
2022-12-15T12:14:12.781Z,2.90
2022-12-15T12:16:53.911Z,2.81
2022-12-15T12:19:33.646Z,2.76
2022-12-15T12:22:14.010Z,2.70
2022-12-15T12:25:20.929Z,2.64
2022-12-15T12:28:05.516Z,2.58
2022-12-15T12:30:44.541Z,2.52
2022-12-15T12:33:44.314Z,2.48
2022-12-15T12:36:16.369Z,2.41
2022-12-15T12:38:52.463Z,2.36
2022-12-15T12:41:48.499Z,2.32
2022-12-15T12:44:32.782Z,2.30
2022-12-15T12:47:31.913Z,2.26
2022-12-15T12:50:18.793Z,2.22
2022-12-15T12:53:23.836Z,2.21
2022-12-15T12:55:52.402Z,2.20
2022-12-15T12:58:48.576Z,2.25
2022-12-15T13:01:33.942Z,2.31
2022-12-15T13:04:08.193Z,2.38
2022-12-15T13:06:36.645Z,2.47
2022-12-15T13:09:17.435Z,2.54
2022-12-15T13:11:49.224Z,2.59
2022-12-15T13:14:44.944Z,2.61
2022-12-15T13:17:33.098Z,2.64
2022-12-15T13:20:01.580Z,2.66
2022-12-15T13:22:36.435Z,2.68
2022-12-15T13:25:38.166Z,2.69
2022-12-15T13:28:36.046Z,2.68
2022-12-15T13:31:16.804Z,2.67
2022-12-15T13:33:56.182Z,2.67
2022-12-15T13:36:39.726Z,2.66
2022-12-15T13:39:17.249Z,2.64
2022-12-15T13:42:23.740Z,2.58
2022-12-15T13:44:51.988Z,2.48
2022-12-15T13:47:28.084Z,2.38
2022-12-15T13:50:18.151Z,2.28
2022-12-15T13:56:05.733Z,1.97
2022-12-15T13:58:45.680Z,1.78
2022-12-15T14:01:33.583Z,1.56
2022-12-15T14:04:07.247Z,1.39
2022-12-15T14:06:40.757Z,1.24
2022-12-15T14:09:15.592Z,1.08
2022-12-15T14:11:53.128Z,0.88
2022-12-15T14:14:37.758Z,0.67
2022-12-15T14:17:15.418Z,0.42
2022-12-15T14:19:50.939Z,0.16
2022-12-15T14:22:28.470Z,-0.06
2022-12-15T14:25:21.845Z,-0.28
2022-12-15T14:27:51.275Z,-0.51
2022-12-15T14:30:30.412Z,-0.68
2022-12-15T14:33:19.405Z,-0.83
2022-12-15T14:35:51.535Z,-0.99
2022-12-15T14:38:32.363Z,-1.13
2022-12-15T14:41:04.449Z,-1.29
2022-12-15T14:43:39.752Z,-1.46
2022-12-15T14:46:19.174Z,-1.64
2022-12-15T14:49:03.245Z,-1.79
2022-12-15T14:51:45.502Z,-1.93
2022-12-15T14:54:38.328Z,-2.07
2022-12-15T14:57:14.751Z,-2.19
2022-12-15T14:59:46.341Z,-2.29
2022-12-15T15:02:27.034Z,-2.40
2022-12-15T15:05:24.261Z,-2.56
2022-12-15T15:07:56.741Z,-2.74
2022-12-15T15:10:30.122Z,-2.92
2022-12-15T15:12:59.137Z,-3.07
2022-12-15T15:15:28.034Z,-3.25
2022-12-15T15:18:00.239Z,-3.42
2022-12-15T15:20:36.026Z,-3.59
2022-12-15T15:23:07.554Z,-3.76
2022-12-15T15:25:53.959Z,-3.91
2022-12-15T15:28:27.921Z,-4.09
2022-12-15T15:31:06.955Z,-4.22
2022-12-15T15:33:38.373Z,-4.37
2022-12-15T15:36:10.906Z,-4.51
2022-12-15T15:38:41.371Z,-4.66
2022-12-15T15:41:18.779Z,-4.80
2022-12-15T15:43:48.114Z,-4.93
2022-12-15T15:46:21.848Z,-5.03
2022-12-15T15:49:01.672Z,-5.15
2022-12-15T15:51:32.180Z,-5.29
2022-12-15T15:54:10.514Z,-5.42
2022-12-15T15:56:39.310Z,-5.54
2022-12-15T15:59:17.107Z,-5.63
2022-12-15T16:01:50.139Z,-5.73
2022-12-15T16:04:19.089Z,-5.81
2022-12-15T16:06:48.988Z,-5.86
2022-12-15T16:09:17.764Z,-5.92
2022-12-15T16:11:46.707Z,-5.97
2022-12-15T16:14:17.666Z,-6.01
2022-12-15T16:16:46.344Z,-6.04
2022-12-15T16:19:14.901Z,-6.06
2022-12-15T16:21:43.835Z,-6.07
2022-12-15T16:24:18.735Z,-6.07
2022-12-15T16:26:50.673Z,-6.06
2022-12-15T16:29:21.039Z,-6.09
2022-12-15T16:31:49.849Z,-6.10
2022-12-15T16:34:19.403Z,-6.16
2022-12-15T16:36:48.168Z,-6.25
2022-12-15T16:39:30.807Z,-6.38
2022-12-15T16:41:59.956Z,-6.49
2022-12-15T16:44:29.805Z,-6.58
2022-12-15T16:46:59.050Z,-6.73
2022-12-15T16:49:32.803Z,-6.83
2022-12-15T16:52:12.062Z,-6.89
2022-12-15T16:54:41.677Z,-6.95
2022-12-15T16:57:12.094Z,-6.99
2022-12-15T16:59:40.786Z,-7.05
2022-12-15T17:02:29.196Z,-7.10
2022-12-15T17:04:58.204Z,-7.15
2022-12-15T17:07:28.217Z,-7.19
2022-12-15T17:09:56.886Z,-7.23
2022-12-15T17:12:25.754Z,-7.27
2022-12-15T17:14:54.421Z,-7.31
2022-12-15T17:17:23.026Z,-7.34
2022-12-15T17:20:27.245Z,-7.37
2022-12-15T17:22:41.209Z,-7.37
2022-12-15T17:26:18.070Z,-7.37
2022-12-15T17:28:32.548Z,-7.36
2022-12-15T17:31:01.243Z,-7.36
2022-12-15T17:33:34.084Z,-7.36
2022-12-15T17:36:15.035Z,-7.35
2022-12-15T17:38:43.725Z,-7.32
2022-12-15T17:41:35.099Z,-7.30
2022-12-15T17:44:31.630Z,-7.26
2022-12-15T17:46:54.653Z,-7.22
2022-12-15T17:49:23.374Z,-7.17
2022-12-15T17:51:51.945Z,-7.13
2022-12-15T17:54:21.029Z,-7.10
2022-12-15T17:56:50.332Z,-7.07
2022-12-15T17:59:23.143Z,-7.04
2022-12-15T18:01:52.291Z,-7.01
2022-12-15T18:04:21.055Z,-6.95
2022-12-15T18:06:49.631Z,-6.88
2022-12-15T18:09:21.040Z,-6.81
2022-12-15T18:11:49.649Z,-6.74
2022-12-15T18:14:21.391Z,-6.66
2022-12-15T18:16:50.142Z,-6.59
2022-12-15T18:19:18.758Z,-6.52
2022-12-15T18:21:47.336Z,-6.44
2022-12-15T18:24:19.323Z,-6.37
2022-12-15T18:26:48.052Z,-6.29
2022-12-15T18:29:18.377Z,-6.21
2022-12-15T18:31:48.868Z,-6.16
2022-12-15T18:34:21.403Z,-6.11
2022-12-15T18:36:51.585Z,-6.05
2022-12-15T18:39:23.837Z,-6.00
2022-12-15T18:41:54.927Z,-5.94
2022-12-15T18:44:27.672Z,-5.89
2022-12-15T18:46:56.404Z,-5.83
2022-12-15T18:49:25.069Z,-5.79
2022-12-15T18:51:53.760Z,-5.74
2022-12-15T18:54:24.649Z,-5.71
2022-12-15T18:56:53.208Z,-5.68
2022-12-15T18:59:23.562Z,-5.66
2022-12-15T19:01:52.278Z,-5.66
2022-12-15T19:04:20.893Z,-5.64
2022-12-15T19:06:49.570Z,-5.64
2022-12-15T19:09:23.222Z,-5.63
2022-12-15T19:12:10.312Z,-5.62
2022-12-15T19:14:41.685Z,-5.61
2022-12-15T19:17:31.453Z,-5.63
2022-12-15T19:20:19.520Z,-5.68
2022-12-15T19:22:49.298Z,-5.72
2022-12-15T19:25:26.560Z,-5.76
2022-12-15T19:28:00.817Z,-5.80
2022-12-15T19:30:41.585Z,-5.83
2022-12-15T19:33:16.157Z,-5.84
2022-12-15T19:35:51.022Z,-5.83
2022-12-15T19:38:32.895Z,-5.82
2022-12-15T19:41:01.464Z,-5.81
2022-12-15T19:43:30.505Z,-5.79
2022-12-15T19:45:59.746Z,-5.78
2022-12-15T19:48:28.325Z,-5.76
2022-12-15T19:50:56.880Z,-5.73
2022-12-15T19:53:30.943Z,-5.71
2022-12-15T19:56:01.616Z,-5.68
2022-12-15T19:58:33.602Z,-5.66
2022-12-15T20:01:14.806Z,-5.63
2022-12-15T20:03:46.160Z,-5.59
2022-12-15T20:06:26.995Z,-5.54
2022-12-15T20:08:56.426Z,-5.48
2022-12-15T20:11:31.512Z,-5.43
2022-12-15T20:14:02.042Z,-5.36
2022-12-15T20:16:30.731Z,-5.29
2022-12-15T20:19:00.544Z,-5.24
2022-12-15T20:21:34.561Z,-5.19
2022-12-15T20:24:12.344Z,-5.15
2022-12-15T20:26:42.908Z,-5.12
2022-12-15T20:29:29.513Z,-5.09
2022-12-15T20:31:59.755Z,-5.05
2022-12-15T20:34:28.619Z,-5.04
2022-12-15T20:36:57.323Z,-5.04
2022-12-15T20:39:29.545Z,-5.03
2022-12-15T20:41:58.477Z,-5.01
2022-12-15T20:44:27.053Z,-4.98
2022-12-15T20:46:55.679Z,-4.93
2022-12-15T20:49:24.461Z,-4.91
2022-12-15T20:51:53.024Z,-4.88
2022-12-15T20:54:22.685Z,-4.87
2022-12-15T20:56:51.251Z,-4.87
2022-12-15T20:59:19.844Z,-4.88
2022-12-15T21:01:48.600Z,-4.88
2022-12-15T21:04:29.909Z,-4.89
2022-12-15T21:06:58.833Z,-4.89
2022-12-15T21:09:27.558Z,-4.90
2022-12-15T21:11:56.191Z,-4.89
2022-12-15T21:14:24.926Z,-4.88
2022-12-15T21:16:53.653Z,-4.86
2022-12-15T21:19:22.959Z,-4.83
2022-12-15T21:21:55.231Z,-4.81
2022-12-15T21:24:28.770Z,-4.78
2022-12-15T21:26:57.467Z,-4.75
2022-12-15T21:29:28.989Z,-4.72
2022-12-15T21:31:57.491Z,-4.69
2022-12-15T21:34:26.111Z,-4.66
2022-12-15T21:36:55.606Z,-4.64
2022-12-15T21:39:35.416Z,-4.62
2022-12-15T21:42:12.811Z,-4.60
2022-12-15T21:44:41.800Z,-4.58
2022-12-15T21:47:47.140Z,-4.57
2022-12-15T21:50:17.636Z,-4.55
2022-12-15T21:52:47.532Z,-4.53
2022-12-15T21:55:21.971Z,-4.51
2022-12-15T21:57:50.519Z,-4.48
2022-12-15T22:00:21.504Z,-4.47
2022-12-15T22:02:52.889Z,-4.45
2022-12-15T22:05:25.586Z,-4.43
2022-12-15T22:07:54.130Z,-4.41
2022-12-15T22:10:24.612Z,-4.39
2022-12-15T22:12:59.353Z,-4.37
2022-12-15T22:15:29.236Z,-4.36
2022-12-15T22:17:57.869Z,-4.33
2022-12-15T22:20:26.535Z,-4.29
2022-12-15T22:22:55.113Z,-4.26
2022-12-15T22:25:25.991Z,-4.24
2022-12-15T22:27:54.734Z,-4.21
2022-12-15T22:30:26.442Z,-4.19
2022-12-15T22:32:55.064Z,-4.17
2022-12-15T22:35:26.584Z,-4.16
2022-12-15T22:37:56.169Z,-4.16
2022-12-15T22:40:26.234Z,-4.14
2022-12-15T22:42:57.943Z,-4.13
2022-12-15T22:45:26.576Z,-4.13
2022-12-15T22:47:55.360Z,-4.12
2022-12-15T22:50:26.836Z,-4.11
2022-12-15T22:52:55.417Z,-4.10
2022-12-15T22:55:24.829Z,-4.11
2022-12-15T22:58:01.459Z,-4.09
2022-12-15T23:00:30.010Z,-4.08
2022-12-15T23:02:59.184Z,-4.07
2022-12-15T23:05:28.186Z,-4.05
2022-12-15T23:07:56.931Z,-4.02
2022-12-15T23:10:44.212Z,-3.99
2022-12-15T23:13:12.809Z,-3.94
2022-12-15T23:15:59.878Z,-3.91
2022-12-15T23:18:28.513Z,-3.88
2022-12-15T23:20:57.466Z,-3.86
2022-12-15T23:23:27.905Z,-3.83
2022-12-15T23:25:56.454Z,-3.80
2022-12-15T23:28:25.666Z,-3.77
2022-12-15T23:30:55.691Z,-3.74
2022-12-15T23:33:27.340Z,-3.70
2022-12-15T23:35:59.091Z,-3.68
2022-12-15T23:38:28.847Z,-3.64
2022-12-15T23:40:58.173Z,-3.61
2022-12-15T23:43:30.744Z,-3.57
2022-12-15T23:46:06.701Z,-3.54
2022-12-15T23:48:41.495Z,-3.52
2022-12-15T23:51:16.832Z,-3.48
2022-12-15T23:53:47.899Z,-3.44
2022-12-15T23:56:23.211Z,-3.42
2022-12-15T23:58:56.315Z,-3.39
